Time;durP1;ratioP1;P1;durP2;ratioP2;P2;SDS_P1;SDS_P2;PMS_P1;PMS_P2;Temp;Humidity;BMP_temperature;BMP_pressure;BME280_temperature;BME280_humidity;BME280_pressure;Samples;Min_cycle;Max_cycle;Signal;HPM_P1;HPM_P2
2022/12/01 00:01:14;;;;;;;106.90;42.95;;;;;;;;;;5035126;28;20121;-71
2022/12/01 00:03:40;;;;;;;103.03;41.83;;;;;;;;;;5035353;28;20048;-72
2022/12/01 00:06:09;;;;;;;105.22;42.78;;;;;;;;;;5038818;28;20057;-71
2022/12/01 00:08:35;;;;;;;93.85;41.17;;;;;;;;;;5035991;28;20685;-72
2022/12/01 00:11:08;;;;;;;104.43;43.33;;;;;;;;;;5035565;28;20099;-72
2022/12/01 00:13:35;;;;;;;108.38;43.63;;;;;;;;;;5036897;28;20518;-71
2022/12/01 00:16:11;;;;;;;111.50;43.83;;;;;;;;;;5038561;28;20105;-71
2022/12/01 00:18:37;;;;;;;104.80;42.63;;;;;;;;;;5033459;28;20060;-71
2022/12/01 00:21:03;;;;;;;104.93;42.47;;;;;;;;;;5035298;28;20049;-69
2022/12/01 00:23:29;;;;;;;97.82;42.85;;;;;;;;;;5015693;28;20052;-71
2022/12/01 00:26:01;;;;;;;105.63;43.97;;;;;;;;;;5032392;28;20084;-70
2022/12/01 00:28:27;;;;;;;114.40;45.67;;;;;;;;;;5030586;28;20057;-71
2022/12/01 00:30:53;;;;;;;108.57;44.47;;;;;;;;;;5029824;28;20051;-71
2022/12/01 00:33:19;;;;;;;103.15;43.92;;;;;;;;;;5029486;28;20049;-70
2022/12/01 00:35:45;;;;;;;107.82;45.05;;;;;;;;;;5019304;28;20049;-70
2022/12/01 00:38:11;;;;;;;109.20;44.65;;;;;;;;;;5028687;28;20052;-71
2022/12/01 00:40:37;;;;;;;110.93;45.65;;;;;;;;;;5029957;28;20045;-71
2022/12/01 00:43:03;;;;;;;107.47;44.70;;;;;;;;;;5029189;28;20415;-72
2022/12/01 00:45:29;;;;;;;104.47;43.80;;;;;;;;;;5031461;28;20097;-72
2022/12/01 00:47:55;;;;;;;106.30;44.28;;;;;;;;;;5030851;28;20045;-70
2022/12/01 00:50:21;;;;;;;103.53;43.10;;;;;;;;;;5025966;28;20037;-72
2022/12/01 00:52:47;;;;;;;106.45;44.25;;;;;;;;;;5016494;28;20040;-71
2022/12/01 00:55:13;;;;;;;107.57;44.33;;;;;;;;;;5033600;28;20643;-72
2022/12/01 00:57:39;;;;;;;97.10;41.45;;;;;;;;;;5036620;28;21260;-73
2022/12/01 01:00:06;;;;;;;105.63;43.13;;;;;;;;;;5039357;28;20175;-73
2022/12/01 01:02:32;;;;;;;105.18;43.55;;;;;;;;;;5039550;28;20135;-71
2022/12/01 01:04:58;;;;;;;108.07;43.50;;;;;;;;;;5039706;28;20040;-70
2022/12/01 01:07:24;;;;;;;113.30;45.00;;;;;;;;;;5038127;28;20516;-72
2022/12/01 01:09:50;;;;;;;102.40;42.78;;;;;;;;;;5039071;28;20045;-71
2022/12/01 01:12:16;;;;;;;106.53;43.47;;;;;;;;;;5038978;28;20052;-71
2022/12/01 01:14:42;;;;;;;110.60;43.60;;;;;;;;;;5024855;28;20076;-73
2022/12/01 01:17:08;;;;;;;101.82;43.35;;;;;;;;;;5039164;28;20053;-71
2022/12/01 01:19:34;;;;;;;106.57;42.97;;;;;;;;;;5038558;28;20049;-71
2022/12/01 01:21:59;;;;;;;107.97;45.03;;;;;;;;;;5037585;28;20518;-71
2022/12/01 01:24:26;;;;;;;112.95;44.78;;;;;;;;;;5040726;28;20052;-71
2022/12/01 01:26:54;;;;;;;112.93;44.60;;;;;;;;;;5036727;28;20038;-69
2022/12/01 01:29:20;;;;;;;101.28;43.30;;;;;;;;;;5038382;28;20045;-69
2022/12/01 01:31:46;;;;;;;109.78;43.08;;;;;;;;;;5037739;28;20735;-72
2022/12/01 01:34:12;;;;;;;109.13;43.92;;;;;;;;;;5038304;28;20049;-71
2022/12/01 01:36:38;;;;;;;107.00;43.70;;;;;;;;;;5039024;28;20051;-73
2022/12/01 01:39:04;;;;;;;110.63;43.83;;;;;;;;;;5038255;28;20060;-70
2022/12/01 01:41:30;;;;;;;103.50;42.80;;;;;;;;;;5039032;28;20418;-69
2022/12/01 01:44:01;;;;;;;101.47;42.92;;;;;;;;;;5040077;28;20144;-71
2022/12/01 01:46:35;;;;;;;103.03;45.00;;;;;;;;;;5039477;28;20084;-71
2022/12/01 01:49:07;;;;;;;111.78;45.80;;;;;;;;;;5038839;28;20126;-70
2022/12/01 01:51:33;;;;;;;109.28;44.63;;;;;;;;;;5035557;28;20052;-70
2022/12/01 01:54:01;;;;;;;110.05;44.03;;;;;;;;;;5040867;28;20068;-72
2022/12/01 01:56:27;;;;;;;108.32;43.33;;;;;;;;;;5036907;28;20045;-70
2022/12/01 01:58:54;;;;;;;108.03;44.88;;;;;;;;;;5038929;28;20041;-72
2022/12/01 02:01:20;;;;;;;106.03;44.08;;;;;;;;;;5035964;28;20048;-72
2022/12/01 02:03:47;;;;;;;104.35;45.58;;;;;;;;;;5038351;28;20439;-70
2022/12/01 02:06:13;;;;;;;105.15;45.05;;;;;;;;;;5037198;28;20056;-70
2022/12/01 02:08:39;;;;;;;101.65;44.00;;;;;;;;;;5038160;28;20499;-72
2022/12/01 02:11:23;;;;;;;100.65;44.53;;;;;;;;;;5036810;28;20044;-71
2022/12/01 02:14:03;;;;;;;103.40;43.75;;;;;;;;;;5021921;28;20041;-72
2022/12/01 02:16:48;;;;;;;99.05;42.67;;;;;;;;;;5038906;28;20045;-70
2022/12/01 02:19:40;;;;;;;94.30;43.78;;;;;;;;;;5039951;28;20087;-71
2022/12/01 02:22:28;;;;;;;105.88;46.00;;;;;;;;;;5037383;28;20068;-71
2022/12/01 02:25:12;;;;;;;101.28;44.25;;;;;;;;;;5037775;28;20041;-72
2022/12/01 02:27:50;;;;;;;97.72;43.47;;;;;;;;;;5039093;28;20466;-71
2022/12/01 02:30:17;;;;;;;100.82;44.28;;;;;;;;;;5039666;28;20077;-72
2022/12/01 02:32:49;;;;;;;99.93;44.08;;;;;;;;;;5039245;28;20043;-71
2022/12/01 02:35:30;;;;;;;108.05;44.80;;;;;;;;;;5036736;28;20123;-70
2022/12/01 02:37:59;;;;;;;99.75;45.95;;;;;;;;;;5036939;28;22320;-70
2022/12/01 02:40:35;;;;;;;99.32;44.47;;;;;;;;;;5021137;28;20045;-70
2022/12/01 02:43:13;;;;;;;100.10;44.72;;;;;;;;;;5039441;28;20037;-72
2022/12/01 02:45:52;;;;;;;98.18;45.92;;;;;;;;;;5037021;28;20442;-72
2022/12/01 02:48:29;;;;;;;104.95;47.47;;;;;;;;;;5037295;28;20069;-72
2022/12/01 02:50:58;;;;;;;102.82;45.60;;;;;;;;;;5037582;28;20084;-71
2022/12/01 02:53:24;;;;;;;100.78;44.85;;;;;;;;;;5036762;28;20408;-72
2022/12/01 02:55:54;;;;;;;97.82;45.03;;;;;;;;;;5034964;28;20125;-72
2022/12/01 02:58:21;;;;;;;106.05;44.85;;;;;;;;;;5021109;28;20072;-72
2022/12/01 03:01:03;;;;;;;104.68;47.22;;;;;;;;;;5036226;28;20053;-72
2022/12/01 03:03:39;;;;;;;95.85;44.47;;;;;;;;;;5035860;28;20110;-70
2022/12/01 03:06:13;;;;;;;109.63;45.97;;;;;;;;;;5036469;28;20404;-71
2022/12/01 03:08:44;;;;;;;97.85;45.38;;;;;;;;;;5019932;28;20544;-70
2022/12/01 03:11:25;;;;;;;100.65;46.05;;;;;;;;;;5036319;28;20068;-71
2022/12/01 03:14:10;;;;;;;98.32;46.33;;;;;;;;;;5036485;28;20048;-71
2022/12/01 03:16:42;;;;;;;97.93;46.92;;;;;;;;;;5034445;28;20061;-72
2022/12/01 03:19:12;;;;;;;101.20;46.58;;;;;;;;;;5038123;28;20052;-70
2022/12/01 03:21:44;;;;;;;100.00;46.00;;;;;;;;;;5037283;28;20075;-70
2022/12/01 03:24:13;;;;;;;96.13;45.58;;;;;;;;;;5039401;28;20041;-72
2022/12/01 03:26:40;;;;;;;97.85;45.60;;;;;;;;;;5036218;28;20503;-72
2022/12/01 03:29:08;;;;;;;101.60;46.03;;;;;;;;;;5037779;28;20041;-70
2022/12/01 03:31:39;;;;;;;100.25;47.25;;;;;;;;;;5034485;28;20090;-72
2022/12/01 03:34:11;;;;;;;93.80;45.38;;;;;;;;;;5021259;28;20064;-72
2022/12/01 03:36:40;;;;;;;102.38;45.97;;;;;;;;;;5037738;28;20045;-71
2022/12/01 03:39:09;;;;;;;96.60;46.03;;;;;;;;;;5036191;28;20391;-71
2022/12/01 03:41:39;;;;;;;97.72;47.13;;;;;;;;;;5037362;28;20692;-71
2022/12/01 03:44:08;;;;;;;96.93;46.42;;;;;;;;;;5034155;28;20578;-70
2022/12/01 03:46:39;;;;;;;96.18;45.30;;;;;;;;;;5036348;28;20037;-69
2022/12/01 03:49:07;;;;;;;94.63;44.55;;;;;;;;;;5037085;28;20530;-70
2022/12/01 03:51:42;;;;;;;93.18;46.42;;;;;;;;;;5036912;28;20087;-70
2022/12/01 03:54:17;;;;;;;97.97;45.03;;;;;;;;;;5036127;28;20080;-72
2022/12/01 03:56:46;;;;;;;97.72;47.70;;;;;;;;;;5036041;28;20052;-71
2022/12/01 03:59:13;;;;;;;101.97;47.63;;;;;;;;;;5019143;28;20053;-70
2022/12/01 04:01:39;;;;;;;93.30;47.08;;;;;;;;;;5035175;28;20657;-72
2022/12/01 04:04:07;;;;;;;98.50;46.83;;;;;;;;;;5036877;28;20130;-70
2022/12/01 04:06:33;;;;;;;100.57;47.10;;;;;;;;;;5020076;28;20045;-72
2022/12/01 04:08:59;;;;;;;96.65;47.25;;;;;;;;;;5036462;28;20068;-71
2022/12/01 04:14:10;;;;;;;96.28;45.80;;;;;;;;;;5037548;28;20079;-70
2022/12/01 04:16:36;;;;;;;91.45;46.90;;;;;;;;;;5037504;28;20045;-72
2022/12/01 04:19:02;;;;;;;95.30;46.08;;;;;;;;;;5018996;28;20084;-70
2022/12/01 04:21:28;;;;;;;93.32;46.20;;;;;;;;;;5037102;28;20049;-69
2022/12/01 04:24:00;;;;;;;90.00;45.03;;;;;;;;;;5036838;28;20071;-70
2022/12/01 04:26:36;;;;;;;72.30;34.90;;;;;;;;;;5036515;28;20430;-70
2022/12/01 04:29:03;;;;;;;95.95;45.80;;;;;;;;;;5021000;28;20510;-72
2022/12/01 04:31:29;;;;;;;98.80;47.47;;;;;;;;;;5037082;28;20049;-72
2022/12/01 04:33:56;;;;;;;98.57;46.67;;;;;;;;;;5036994;28;20051;-71
2022/12/01 04:36:23;;;;;;;93.20;47.65;;;;;;;;;;5039910;28;20049;-71
2022/12/01 04:38:49;;;;;;;87.95;45.00;;;;;;;;;;5041021;28;20044;-71
2022/12/01 04:41:15;;;;;;;95.10;45.97;;;;;;;;;;5038089;28;20047;-72
2022/12/01 04:43:41;;;;;;;96.85;45.97;;;;;;;;;;5036973;28;20053;-71
2022/12/01 04:46:07;;;;;;;90.13;45.72;;;;;;;;;;5040152;28;20040;-72
2022/12/01 04:48:37;;;;;;;99.43;47.92;;;;;;;;;;5043114;28;20096;-71
2022/12/01 04:51:03;;;;;;;90.30;44.95;;;;;;;;;;5039606;28;20045;-71
2022/12/01 04:53:29;;;;;;;94.15;45.60;;;;;;;;;;5040399;28;20136;-72
2022/12/01 04:55:55;;;;;;;98.30;46.58;;;;;;;;;;5031916;28;20048;-71
2022/12/01 04:58:21;;;;;;;96.32;47.53;;;;;;;;;;5036215;28;20041;-72
2022/12/01 05:00:47;;;;;;;95.75;47.45;;;;;;;;;;5033575;28;20119;-72
2022/12/01 05:03:13;;;;;;;93.32;44.20;;;;;;;;;;5036599;28;20140;-72
2022/12/01 05:05:39;;;;;;;92.90;46.80;;;;;;;;;;5040406;28;20037;-71
2022/12/01 05:08:05;;;;;;;90.97;44.55;;;;;;;;;;5041466;28;22279;-70
2022/12/01 05:10:34;;;;;;;94.40;46.35;;;;;;;;;;5039576;28;20496;-71
2022/12/01 05:13:01;;;;;;;101.85;48.00;;;;;;;;;;5038643;28;21224;-71
2022/12/01 05:15:27;;;;;;;97.75;46.33;;;;;;;;;;5037918;28;20140;-71
2022/12/01 05:17:53;;;;;;;102.57;47.05;;;;;;;;;;5035554;28;20051;-70
2022/12/01 05:23:08;;;;;;;102.85;48.17;;;;;;;;;;5032869;28;20084;-71
2022/12/01 05:25:36;;;;;;;98.78;46.88;;;;;;;;;;5037000;28;20052;-70
2022/12/01 05:28:02;;;;;;;97.45;46.65;;;;;;;;;;5041353;28;20159;-72
2022/12/01 05:30:28;;;;;;;105.43;48.83;;;;;;;;;;5037890;28;20044;-71
2022/12/01 05:32:54;;;;;;;101.95;48.60;;;;;;;;;;5039995;28;20056;-71
2022/12/01 05:35:20;;;;;;;110.93;50.78;;;;;;;;;;5038040;28;20053;-71
2022/12/01 05:37:46;;;;;;;102.63;50.25;;;;;;;;;;5039222;28;20365;-70
2022/12/01 05:40:12;;;;;;;106.13;48.65;;;;;;;;;;5038342;28;20098;-69
2022/12/01 05:42:38;;;;;;;110.18;49.40;;;;;;;;;;5037460;28;20047;-69
2022/12/01 05:45:04;;;;;;;106.05;48.58;;;;;;;;;;5037042;28;20041;-70
2022/12/01 05:47:30;;;;;;;115.93;51.20;;;;;;;;;;5031244;28;20033;-71
2022/12/01 05:49:57;;;;;;;106.88;49.08;;;;;;;;;;5039856;28;20094;-71
2022/12/01 05:52:23;;;;;;;106.68;50.72;;;;;;;;;;5038193;28;20041;-71
2022/12/01 05:54:49;;;;;;;100.40;49.03;;;;;;;;;;5039980;28;20914;-70
2022/12/01 05:57:15;;;;;;;106.53;48.55;;;;;;;;;;5040435;28;20114;-71
2022/12/01 05:59:41;;;;;;;109.80;50.95;;;;;;;;;;5041619;28;20044;-70
2022/12/01 06:02:07;;;;;;;111.57;50.63;;;;;;;;;;5039616;28;20046;-70
2022/12/01 06:04:33;;;;;;;113.00;51.53;;;;;;;;;;5035315;28;20222;-70
2022/12/01 06:06:59;;;;;;;118.43;52.17;;;;;;;;;;5032022;28;20048;-70
2022/12/01 06:09:25;;;;;;;110.95;50.20;;;;;;;;;;5018068;28;20140;-70
2022/12/01 06:11:51;;;;;;;114.85;52.10;;;;;;;;;;5031495;28;20041;-70
2022/12/01 06:14:17;;;;;;;115.50;51.15;;;;;;;;;;5032698;28;20048;-72
2022/12/01 06:16:43;;;;;;;115.60;51.95;;;;;;;;;;5030533;28;20106;-71
2022/12/01 06:19:09;;;;;;;115.43;51.47;;;;;;;;;;5033678;28;20490;-70
2022/12/01 06:21:35;;;;;;;116.90;51.95;;;;;;;;;;5040326;28;20053;-70
2022/12/01 06:24:01;;;;;;;112.53;49.88;;;;;;;;;;5037279;28;20102;-71
2022/12/01 06:26:27;;;;;;;116.95;53.35;;;;;;;;;;5038914;28;20049;-71
2022/12/01 06:28:53;;;;;;;113.93;53.17;;;;;;;;;;5037266;28;20128;-71
2022/12/01 06:31:19;;;;;;;119.78;52.08;;;;;;;;;;5038670;28;20052;-71
2022/12/01 06:33:44;;;;;;;120.43;51.45;;;;;;;;;;5037175;28;20049;-71
2022/12/01 06:36:10;;;;;;;112.32;50.40;;;;;;;;;;5037009;28;20407;-71
2022/12/01 06:38:36;;;;;;;112.65;50.80;;;;;;;;;;5035332;28;20049;-71
2022/12/01 06:41:04;;;;;;;117.57;50.88;;;;;;;;;;5038121;28;20066;-71
2022/12/01 06:43:30;;;;;;;117.28;52.15;;;;;;;;;;5035134;28;20080;-70
2022/12/01 06:45:56;;;;;;;118.07;52.63;;;;;;;;;;5039769;28;20135;-70
2022/12/01 06:48:22;;;;;;;114.10;50.45;;;;;;;;;;5037161;28;20067;-70
2022/12/01 06:50:48;;;;;;;108.90;51.13;;;;;;;;;;5037279;28;20131;-71
2022/12/01 06:53:14;;;;;;;117.57;51.95;;;;;;;;;;5030809;28;20040;-70
2022/12/01 06:55:40;;;;;;;112.15;49.97;;;;;;;;;;5032195;28;20395;-69
2022/12/01 06:58:06;;;;;;;119.35;51.95;;;;;;;;;;5033360;28;20053;-72
2022/12/01 07:00:32;;;;;;;112.25;51.17;;;;;;;;;;5033161;28;20053;-71
2022/12/01 07:02:58;;;;;;;110.38;49.53;;;;;;;;;;5031515;28;20044;-71
2022/12/01 07:05:25;;;;;;;118.25;50.83;;;;;;;;;;5033073;28;20132;-71
2022/12/01 07:07:51;;;;;;;114.53;50.83;;;;;;;;;;5016677;28;20178;-71
2022/12/01 07:10:17;;;;;;;112.40;50.53;;;;;;;;;;5031390;28;20173;-70
2022/12/01 07:12:43;;;;;;;115.03;52.25;;;;;;;;;;5031009;28;20048;-70
2022/12/01 07:15:09;;;;;;;114.20;50.20;;;;;;;;;;5038092;28;20135;-70
2022/12/01 07:17:35;;;;;;;115.35;50.92;;;;;;;;;;5024691;28;20045;-69
2022/12/01 07:20:02;;;;;;;108.75;48.47;;;;;;;;;;5039813;28;20434;-69
2022/12/01 07:22:28;;;;;;;107.13;47.17;;;;;;;;;;5036649;28;20044;-69
2022/12/01 07:24:54;;;;;;;103.55;46.83;;;;;;;;;;5042538;28;20139;-70
2022/12/01 07:27:20;;;;;;;102.75;47.05;;;;;;;;;;5040973;28;20456;-69
2022/12/01 07:29:46;;;;;;;109.72;48.78;;;;;;;;;;5042065;28;20090;-71
2022/12/01 07:32:13;;;;;;;117.53;51.22;;;;;;;;;;5042754;28;20048;-70
2022/12/01 07:34:38;;;;;;;113.35;50.22;;;;;;;;;;5043116;28;20458;-70
2022/12/01 07:37:05;;;;;;;111.00;50.65;;;;;;;;;;5039377;28;20056;-70
2022/12/01 07:39:31;;;;;;;122.45;51.08;;;;;;;;;;5040329;28;20041;-72
2022/12/01 07:41:57;;;;;;;118.03;51.90;;;;;;;;;;5038012;28;20185;-71
2022/12/01 07:44:23;;;;;;;120.35;51.67;;;;;;;;;;5035760;28;20056;-70
2022/12/01 07:46:49;;;;;;;118.15;53.20;;;;;;;;;;5039225;28;20045;-71
2022/12/01 07:49:15;;;;;;;113.80;50.60;;;;;;;;;;5037568;28;20041;-72
2022/12/01 07:51:41;;;;;;;118.28;51.22;;;;;;;;;;5039530;28;20401;-71
2022/12/01 07:54:07;;;;;;;117.68;50.17;;;;;;;;;;5041804;28;20069;-71
2022/12/01 07:56:33;;;;;;;125.80;52.47;;;;;;;;;;5039530;28;20052;-72
2022/12/01 07:58:59;;;;;;;120.35;52.50;;;;;;;;;;5040529;28;20045;-70
2022/12/01 08:01:25;;;;;;;117.63;51.20;;;;;;;;;;5039612;28;20120;-71
2022/12/01 08:03:52;;;;;;;117.53;51.20;;;;;;;;;;5043201;28;20053;-72
2022/12/01 08:06:19;;;;;;;115.68;51.50;;;;;;;;;;5041045;28;20144;-71
2022/12/01 08:08:45;;;;;;;116.60;52.00;;;;;;;;;;5040880;28;20040;-69
2022/12/01 08:11:13;;;;;;;117.38;50.28;;;;;;;;;;5039254;28;20064;-72
2022/12/01 08:13:39;;;;;;;120.43;52.33;;;;;;;;;;5044326;28;20079;-71
2022/12/01 08:16:06;;;;;;;116.05;49.50;;;;;;;;;;5040625;28;20056;-70
2022/12/01 08:18:36;;;;;;;127.60;53.58;;;;;;;;;;5039723;28;20053;-71
2022/12/01 08:21:03;;;;;;;116.80;51.85;;;;;;;;;;5040233;28;20056;-72
2022/12/01 08:23:29;;;;;;;122.18;52.60;;;;;;;;;;5040212;28;20403;-71
2022/12/01 08:25:56;;;;;;;122.70;52.42;;;;;;;;;;5036178;28;20064;-72
2022/12/01 08:28:22;;;;;;;116.82;52.50;;;;;;;;;;5039201;28;20064;-70
2022/12/01 08:30:48;;;;;;;115.55;51.28;;;;;;;;;;5037319;28;20731;-71
2022/12/01 08:33:14;;;;;;;127.00;52.47;;;;;;;;;;5036575;28;20045;-69
2022/12/01 08:35:40;;;;;;;119.18;52.25;;;;;;;;;;5037087;28;20060;-70
2022/12/01 08:38:06;;;;;;;115.82;51.72;;;;;;;;;;5036297;28;20049;-71
2022/12/01 08:40:32;;;;;;;115.78;49.90;;;;;;;;;;5039542;28;20428;-70
2022/12/01 08:42:58;;;;;;;115.70;51.30;;;;;;;;;;5044344;28;20080;-71
2022/12/01 08:45:24;;;;;;;108.85;49.65;;;;;;;;;;5042259;28;20053;-70
2022/12/01 08:47:52;;;;;;;117.97;52.30;;;;;;;;;;5039475;28;20110;-70
2022/12/01 08:50:18;;;;;;;123.85;53.30;;;;;;;;;;5037366;28;20045;-69
2022/12/01 08:52:44;;;;;;;111.32;51.92;;;;;;;;;;5042795;28;20128;-69
2022/12/01 08:55:11;;;;;;;119.65;51.45;;;;;;;;;;5039717;28;20051;-70
2022/12/01 08:57:37;;;;;;;114.35;51.25;;;;;;;;;;5038320;28;20698;-69
2022/12/01 09:00:03;;;;;;;118.70;51.22;;;;;;;;;;5038901;28;20041;-71
2022/12/01 09:02:29;;;;;;;119.50;53.08;;;;;;;;;;5038212;28;20044;-70
2022/12/01 09:04:55;;;;;;;117.18;50.83;;;;;;;;;;5039629;28;20052;-70
2022/12/01 09:07:21;;;;;;;120.72;52.45;;;;;;;;;;5039855;28;20040;-70
2022/12/01 09:09:47;;;;;;;115.70;52.22;;;;;;;;;;5040323;28;20037;-71
2022/12/01 09:12:13;;;;;;;110.25;51.03;;;;;;;;;;5037581;28;20063;-72
2022/12/01 09:14:40;;;;;;;109.30;51.28;;;;;;;;;;5030864;28;20153;-72
2022/12/01 09:17:06;;;;;;;114.88;51.58;;;;;;;;;;5036238;28;20547;-71
2022/12/01 09:19:33;;;;;;;112.57;51.97;;;;;;;;;;5038785;28;20153;-69
2022/12/01 09:21:59;;;;;;;108.65;49.33;;;;;;;;;;5022509;28;20127;-68
2022/12/01 09:24:25;;;;;;;120.88;52.05;;;;;;;;;;5039517;28;20661;-71
2022/12/01 09:26:55;;;;;;;109.05;50.92;;;;;;;;;;5041504;28;20072;-70
2022/12/01 09:29:21;;;;;;;107.20;49.05;;;;;;;;;;5038321;28;20041;-71
2022/12/01 09:31:47;;;;;;;109.72;50.45;;;;;;;;;;5041258;28;20082;-70
2022/12/01 09:34:14;;;;;;;114.68;51.00;;;;;;;;;;5041948;28;20049;-69
2022/12/01 09:36:40;;;;;;;105.47;48.10;;;;;;;;;;5043084;28;20044;-70
2022/12/01 09:39:07;;;;;;;108.55;50.10;;;;;;;;;;5044036;28;20403;-73
2022/12/01 09:41:36;;;;;;;112.53;49.72;;;;;;;;;;5045387;28;20057;-71
2022/12/01 09:44:12;;;;;;;103.00;48.10;;;;;;;;;;5043003;28;20667;-69
2022/12/01 09:46:41;;;;;;;109.47;49.67;;;;;;;;;;5044173;28;20168;-68
2022/12/01 09:49:12;;;;;;;104.80;49.00;;;;;;;;;;5043042;28;20101;-70
2022/12/01 09:51:38;;;;;;;113.57;51.08;;;;;;;;;;5045760;28;20044;-69
2022/12/01 09:54:04;;;;;;;109.35;50.72;;;;;;;;;;5043804;28;20112;-72
2022/12/01 09:56:32;;;;;;;103.60;49.33;;;;;;;;;;5042946;28;20090;-70
2022/12/01 09:59:00;;;;;;;100.53;49.85;;;;;;;;;;5041809;28;20049;-68
2022/12/01 10:01:36;;;;;;;107.80;49.42;;;;;;;;;;5043120;28;20045;-69
2022/12/01 10:04:23;;;;;;;111.78;49.00;;;;;;;;;;5041570;28;20045;-69
2022/12/01 10:07:01;;;;;;;103.28;47.80;;;;;;;;;;5044163;28;20061;-73
2022/12/01 10:09:39;;;;;;;110.45;50.78;;;;;;;;;;5043425;28;20101;-69
2022/12/01 10:12:26;;;;;;;102.80;48.92;;;;;;;;;;5043055;28;20048;-72
2022/12/01 10:14:55;;;;;;;100.13;47.95;;;;;;;;;;5041278;28;20042;-71
2022/12/01 10:17:30;;;;;;;99.15;47.63;;;;;;;;;;5039822;28;20046;-71
2022/12/01 10:19:59;;;;;;;100.30;46.78;;;;;;;;;;5040228;28;20045;-71
2022/12/01 10:22:44;;;;;;;97.22;46.47;;;;;;;;;;5039594;28;20048;-72
2022/12/01 10:25:21;;;;;;;97.55;47.90;;;;;;;;;;5043273;28;20053;-71
2022/12/01 10:27:47;;;;;;;96.97;45.50;;;;;;;;;;5040639;28;20045;-71
2022/12/01 10:30:14;;;;;;;98.82;46.42;;;;;;;;;;5044043;28;20037;-69
2022/12/01 10:32:52;;;;;;;92.97;45.25;;;;;;;;;;5041244;28;20496;-72
2022/12/01 10:35:20;;;;;;;84.20;42.92;;;;;;;;;;5041155;28;20052;-73
2022/12/01 10:37:47;;;;;;;89.72;43.15;;;;;;;;;;5040309;28;20045;-72
2022/12/01 10:40:15;;;;;;;86.95;43.55;;;;;;;;;;5026074;28;20592;-71
2022/12/01 10:42:42;;;;;;;87.00;44.92;;;;;;;;;;5042730;28;20044;-73
2022/12/01 10:45:14;;;;;;;85.20;42.83;;;;;;;;;;5041086;28;20045;-69
2022/12/01 10:48:00;;;;;;;85.88;43.15;;;;;;;;;;5040071;28;20056;-71
2022/12/01 10:50:27;;;;;;;90.25;44.25;;;;;;;;;;5043149;28;20048;-73
2022/12/01 10:52:53;;;;;;;89.22;44.10;;;;;;;;;;5038252;28;20044;-72
2022/12/01 10:55:22;;;;;;;86.15;43.53;;;;;;;;;;5042310;28;20275;-70
2022/12/01 10:57:48;;;;;;;87.38;42.72;;;;;;;;;;5042839;28;20037;-69
2022/12/01 11:00:22;;;;;;;83.05;41.95;;;;;;;;;;5039902;28;20167;-70
2022/12/01 11:02:48;;;;;;;78.28;40.78;;;;;;;;;;5041395;28;20480;-70
2022/12/01 11:05:23;;;;;;;84.28;41.80;;;;;;;;;;5041227;28;20052;-70
2022/12/01 11:07:49;;;;;;;82.53;42.65;;;;;;;;;;5042837;28;20440;-72
2022/12/01 11:10:25;;;;;;;91.47;44.22;;;;;;;;;;5039639;28;20518;-71
2022/12/01 11:13:13;;;;;;;87.60;43.17;;;;;;;;;;5037961;28;20072;-72
2022/12/01 11:15:40;;;;;;;89.68;44.15;;;;;;;;;;5038957;28;20045;-72
2022/12/01 11:18:20;;;;;;;87.03;44.42;;;;;;;;;;5041425;28;20041;-70
2022/12/01 11:20:46;;;;;;;79.78;41.67;;;;;;;;;;5043530;28;20041;-72
2022/12/01 11:23:12;;;;;;;88.20;44.15;;;;;;;;;;5040383;28;20095;-71
2022/12/01 11:25:38;;;;;;;87.68;42.95;;;;;;;;;;5040878;28;20041;-70
2022/12/01 11:28:04;;;;;;;87.65;44.38;;;;;;;;;;5038863;28;20431;-71
2022/12/01 11:30:31;;;;;;;134.27;73.25;;;;;;;;;;5043028;28;20139;-70
2022/12/01 11:33:01;;;;;;;86.93;42.55;;;;;;;;;;5023142;28;20068;-72
2022/12/01 11:35:29;;;;;;;80.30;43.63;;;;;;;;;;5037276;28;20439;-71
2022/12/01 11:37:56;;;;;;;80.13;43.20;;;;;;;;;;5024772;28;20557;-70
2022/12/01 11:40:24;;;;;;;80.47;42.97;;;;;;;;;;5020978;28;20094;-70
2022/12/01 11:42:51;;;;;;;73.05;39.40;;;;;;;;;;5037496;28;20061;-72
2022/12/01 11:45:30;;;;;;;72.82;38.72;;;;;;;;;;5042114;28;20081;-70
2022/12/01 11:47:59;;;;;;;72.07;38.83;;;;;;;;;;5043771;28;20127;-70
2022/12/01 11:50:26;;;;;;;70.10;38.15;;;;;;;;;;5039044;28;20041;-71
2022/12/01 11:52:52;;;;;;;67.97;37.00;;;;;;;;;;5023421;28;20044;-71
2022/12/01 11:55:26;;;;;;;65.38;36.95;;;;;;;;;;5037710;28;20053;-70
2022/12/01 11:57:53;;;;;;;67.43;37.33;;;;;;;;;;5038308;28;20045;-71
2022/12/01 12:00:21;;;;;;;68.30;37.00;;;;;;;;;;5037230;28;20068;-71
2022/12/01 12:03:06;;;;;;;73.72;38.80;;;;;;;;;;5031592;28;20122;-69
2022/12/01 12:05:32;;;;;;;67.45;37.28;;;;;;;;;;5024464;28;20136;-69
2022/12/01 12:08:01;;;;;;;67.43;39.30;;;;;;;;;;5037824;28;20187;-69
2022/12/01 12:10:37;;;;;;;67.53;37.90;;;;;;;;;;5039519;28;20085;-72
2022/12/01 12:13:15;;;;;;;65.05;36.78;;;;;;;;;;5041402;28;20040;-69
2022/12/01 12:15:50;;;;;;;68.32;37.08;;;;;;;;;;5041183;28;20079;-70
2022/12/01 12:18:29;;;;;;;64.10;37.45;;;;;;;;;;5038555;28;20047;-72
2022/12/01 12:21:02;;;;;;;68.28;37.53;;;;;;;;;;5041449;28;20049;-69
2022/12/01 12:23:31;;;;;;;61.70;36.13;;;;;;;;;;5038472;28;20132;-71
2022/12/01 12:26:14;;;;;;;66.05;37.55;;;;;;;;;;5040831;28;20064;-69
2022/12/01 12:28:52;;;;;;;69.40;36.50;;;;;;;;;;5037751;28;20574;-71
2022/12/01 12:31:21;;;;;;;66.25;36.60;;;;;;;;;;5041119;28;20076;-71
2022/12/01 12:33:56;;;;;;;67.85;37.88;;;;;;;;;;5039041;28;20051;-69
2022/12/01 12:36:38;;;;;;;62.00;37.13;;;;;;;;;;5036415;28;20044;-73
2022/12/01 12:39:14;;;;;;;66.80;37.97;;;;;;;;;;5034431;28;20053;-73
2022/12/01 12:41:49;;;;;;;67.53;36.85;;;;;;;;;;5039194;28;20048;-69
2022/12/01 12:44:28;;;;;;;66.68;37.08;;;;;;;;;;5037100;28;20049;-69
2022/12/01 12:47:02;;;;;;;61.25;35.22;;;;;;;;;;5042779;28;20041;-69
2022/12/01 12:49:43;;;;;;;59.55;34.35;;;;;;;;;;5037292;28;20036;-69
2022/12/01 12:52:21;;;;;;;59.50;34.40;;;;;;;;;;5033968;28;20131;-69
2022/12/01 12:54:53;;;;;;;55.40;33.60;;;;;;;;;;5040040;28;20044;-69
2022/12/01 12:57:24;;;;;;;50.83;32.13;;;;;;;;;;5035327;28;20526;-70
2022/12/01 12:59:57;;;;;;;55.72;33.60;;;;;;;;;;5027785;28;20095;-69
2022/12/01 13:02:35;;;;;;;52.70;33.35;;;;;;;;;;5042082;28;20053;-69
2022/12/01 13:05:07;;;;;;;53.80;33.40;;;;;;;;;;5027467;28;20503;-71
2022/12/01 13:07:43;;;;;;;59.00;33.50;;;;;;;;;;5040317;28;20044;-71
2022/12/01 13:10:25;;;;;;;56.72;33.10;;;;;;;;;;5042762;28;20040;-72
2022/12/01 13:13:14;;;;;;;58.47;34.17;;;;;;;;;;5043568;28;20041;-71
2022/12/01 13:15:41;;;;;;;57.33;34.28;;;;;;;;;;5046528;28;20125;-72
2022/12/01 13:18:16;;;;;;;62.05;34.28;;;;;;;;;;5044497;28;20049;-70
2022/12/01 13:20:42;;;;;;;58.75;34.55;;;;;;;;;;5026962;28;20040;-71
2022/12/01 13:23:13;;;;;;;63.67;37.03;;;;;;;;;;5044558;28;20418;-71
2022/12/01 13:25:40;;;;;;;58.25;34.22;;;;;;;;;;5043745;28;20068;-71
2022/12/01 13:28:26;;;;;;;61.05;34.95;;;;;;;;;;5044036;28;20041;-72
2022/12/01 13:31:12;;;;;;;59.05;35.72;;;;;;;;;;5041861;28;20127;-72
2022/12/01 13:33:42;;;;;;;59.95;34.58;;;;;;;;;;5039956;28;20041;-71
2022/12/01 13:36:10;;;;;;;57.03;33.55;;;;;;;;;;5042386;28;20473;-71
2022/12/01 13:38:36;;;;;;;62.95;35.05;;;;;;;;;;5044234;28;20102;-71
2022/12/01 13:41:10;;;;;;;58.35;35.25;;;;;;;;;;5043805;28;20065;-71
2022/12/01 13:43:37;;;;;;;59.85;34.92;;;;;;;;;;5040305;28;20420;-72
2022/12/01 13:46:03;;;;;;;56.92;34.05;;;;;;;;;;5026515;28;20106;-70
2022/12/01 13:48:38;;;;;;;60.83;35.20;;;;;;;;;;5038114;28;20068;-70
2022/12/01 13:51:04;;;;;;;63.70;35.08;;;;;;;;;;5042341;28;20499;-71
2022/12/01 13:53:37;;;;;;;59.08;34.97;;;;;;;;;;5041442;28;20053;-71
2022/12/01 13:56:04;;;;;;;;;;;;;;;;;;5042696;28;20045;-72
2022/12/01 13:58:33;;;;;;;59.78;34.15;;;;;;;;;;5043322;28;20019;-70
2022/12/01 14:01:18;;;;;;;56.47;33.72;;;;;;;;;;5042778;28;20053;-71
2022/12/01 14:03:51;;;;;;;53.30;32.60;;;;;;;;;;5042477;28;20052;-72
2022/12/01 14:06:30;;;;;;;59.63;34.72;;;;;;;;;;5040449;28;20132;-70
2022/12/01 14:09:01;;;;;;;56.63;33.15;;;;;;;;;;5058346;28;20056;-71
2022/12/01 14:11:28;;;;;;;55.83;34.28;;;;;;;;;;5042132;28;20049;-71
2022/12/01 14:14:00;;;;;;;57.95;34.53;;;;;;;;;;5042222;28;20059;-71
2022/12/01 14:16:45;;;;;;;61.85;35.35;;;;;;;;;;5037044;28;20041;-70
2022/12/01 14:19:26;;;;;;;56.60;33.92;;;;;;;;;;5039580;28;20056;-70
2022/12/01 14:21:52;;;;;;;54.72;33.20;;;;;;;;;;5041200;28;20165;-71
2022/12/01 14:24:23;;;;;;;54.60;32.45;;;;;;;;;;5039768;28;20505;-71
2022/12/01 14:26:50;;;;;;;54.50;33.40;;;;;;;;;;5041028;28;20083;-69
2022/12/01 14:29:29;;;;;;;53.53;32.53;;;;;;;;;;5040786;28;20075;-71